Terminal Aerodrome Forecast
Issued by NWS Binghamton, NY

Home | Current Version | Previous Version | Text Only | Print | Product List | Glossary On
Versions: 1 2 3 4 5 6 7 8 9 10 11 12 13 14 15 16 17 18
830
FTUS41 KBGM 240546
TAFBGM
TAF
KBGM 240546Z 2406/2506 17010KT P6SM OVC080
     FM241100 19012G22KT P6SM OVC035 WS020/23045KT
     FM241300 19012G22KT 4SM -FZRAPL BR OVC015 WS020/23045KT
     FM241600 21012G22KT 4SM -SHRA BR OVC012
     FM250000 23005KT 2SM BR OVC005=

USA.gov is the U.S. government's official web portal to all federal, state and local government web resources and services.